sensor_id;sensor_type;location;lat;lon;timestamp;temperature;humidity
65568;DHT22;52211;50.154;8.682;2023-03-08T00:01:40;6.80;58.10
65568;DHT22;52211;50.154;8.682;2023-03-08T00:04:12;6.80;58.20
65568;DHT22;52211;50.154;8.682;2023-03-08T00:06:42;6.80;58.00
65568;DHT22;52211;50.154;8.682;2023-03-08T00:09:11;6.70;58.20
65568;DHT22;52211;50.154;8.682;2023-03-08T00:11:38;6.80;58.20
65568;DHT22;52211;50.154;8.682;2023-03-08T00:14:09;6.80;58.40
65568;DHT22;52211;50.154;8.682;2023-03-08T00:16:36;6.70;58.30
65568;DHT22;52211;50.154;8.682;2023-03-08T00:19:07;6.70;58.40
65568;DHT22;52211;50.154;8.682;2023-03-08T00:21:34;6.70;58.30
65568;DHT22;52211;50.154;8.682;2023-03-08T00:24:04;6.80;58.50
65568;DHT22;52211;50.154;8.682;2023-03-08T00:26:35;6.70;58.50
65568;DHT22;52211;50.154;8.682;2023-03-08T00:29:05;6.80;58.50
65568;DHT22;52211;50.154;8.682;2023-03-08T00:31:37;6.70;58.50
65568;DHT22;52211;50.154;8.682;2023-03-08T00:34:09;6.70;58.40
65568;DHT22;52211;50.154;8.682;2023-03-08T00:36:39;6.70;58.60
65568;DHT22;52211;50.154;8.682;2023-03-08T00:39:08;6.70;58.70
65568;DHT22;52211;50.154;8.682;2023-03-08T00:41:40;6.70;58.60
65568;DHT22;52211;50.154;8.682;2023-03-08T00:44:09;6.80;58.70
65568;DHT22;52211;50.154;8.682;2023-03-08T00:46:36;6.80;58.80
65568;DHT22;52211;50.154;8.682;2023-03-08T00:49:09;6.80;58.80
65568;DHT22;52211;50.154;8.682;2023-03-08T00:51:40;6.80;58.80
65568;DHT22;52211;50.154;8.682;2023-03-08T00:54:10;6.80;58.90
65568;DHT22;52211;50.154;8.682;2023-03-08T00:56:40;6.80;59.60
65568;DHT22;52211;50.154;8.682;2023-03-08T00:59:11;6.80;58.90
65568;DHT22;52211;50.154;8.682;2023-03-08T01:01:39;6.80;59.00
65568;DHT22;52211;50.154;8.682;2023-03-08T01:04:06;6.80;59.00
65568;DHT22;52211;50.154;8.682;2023-03-08T01:06:36;6.90;59.00
65568;DHT22;52211;50.154;8.682;2023-03-08T01:09:03;6.80;59.00
65568;DHT22;52211;50.154;8.682;2023-03-08T01:11:32;6.90;59.10
65568;DHT22;52211;50.154;8.682;2023-03-08T01:14:01;6.90;59.10
65568;DHT22;52211;50.154;8.682;2023-03-08T01:16:32;6.90;59.10
65568;DHT22;52211;50.154;8.682;2023-03-08T01:19:00;6.90;59.20
65568;DHT22;52211;50.154;8.682;2023-03-08T01:21:28;6.90;59.20
65568;DHT22;52211;50.154;8.682;2023-03-08T01:23:59;6.90;59.20
65568;DHT22;52211;50.154;8.682;2023-03-08T01:26:28;6.90;59.20
65568;DHT22;52211;50.154;8.682;2023-03-08T01:28:56;6.90;59.10
65568;DHT22;52211;50.154;8.682;2023-03-08T01:31:29;6.90;59.10
65568;DHT22;52211;50.154;8.682;2023-03-08T01:33:58;6.90;59.30
65568;DHT22;52211;50.154;8.682;2023-03-08T01:36:27;6.90;59.20
65568;DHT22;52211;50.154;8.682;2023-03-08T01:39:01;6.90;59.20
65568;DHT22;52211;50.154;8.682;2023-03-08T01:41:32;6.90;59.30
65568;DHT22;52211;50.154;8.682;2023-03-08T01:44:05;6.90;59.40
65568;DHT22;52211;50.154;8.682;2023-03-08T01:46:36;6.90;59.10
65568;DHT22;52211;50.154;8.682;2023-03-08T01:49:31;6.90;59.20
65568;DHT22;52211;50.154;8.682;2023-03-08T01:52:22;6.90;59.40
65568;DHT22;52211;50.154;8.682;2023-03-08T01:54:56;6.90;59.80
65568;DHT22;52211;50.154;8.682;2023-03-08T01:57:33;7.00;59.20
65568;DHT22;52211;50.154;8.682;2023-03-08T02:00:20;7.00;59.40
65568;DHT22;52211;50.154;8.682;2023-03-08T02:03:01;6.90;59.20
65568;DHT22;52211;50.154;8.682;2023-03-08T02:05:35;6.90;59.50
65568;DHT22;52211;50.154;8.682;2023-03-08T02:08:13;6.90;59.40
65568;DHT22;52211;50.154;8.682;2023-03-08T02:10:43;6.90;59.20
65568;DHT22;52211;50.154;8.682;2023-03-08T02:13:12;6.90;59.30
65568;DHT22;52211;50.154;8.682;2023-03-08T02:15:42;6.90;59.30
65568;DHT22;52211;50.154;8.682;2023-03-08T02:18:09;6.90;59.40
65568;DHT22;52211;50.154;8.682;2023-03-08T02:20:41;6.80;59.40
65568;DHT22;52211;50.154;8.682;2023-03-08T02:23:14;6.90;59.60
65568;DHT22;52211;50.154;8.682;2023-03-08T02:26:00;6.90;59.70
65568;DHT22;52211;50.154;8.682;2023-03-08T02:28:31;6.90;60.00
65568;DHT22;52211;50.154;8.682;2023-03-08T02:31:00;6.90;59.50
65568;DHT22;52211;50.154;8.682;2023-03-08T02:33:29;6.90;59.40
65568;DHT22;52211;50.154;8.682;2023-03-08T02:36:01;6.90;59.40
65568;DHT22;52211;50.154;8.682;2023-03-08T02:38:31;6.90;59.60
65568;DHT22;52211;50.154;8.682;2023-03-08T02:40:58;6.90;59.60
65568;DHT22;52211;50.154;8.682;2023-03-08T02:43:27;7.00;59.60
65568;DHT22;52211;50.154;8.682;2023-03-08T02:45:59;7.00;59.70
65568;DHT22;52211;50.154;8.682;2023-03-08T02:48:26;7.00;59.70
65568;DHT22;52211;50.154;8.682;2023-03-08T02:50:56;7.00;59.80
65568;DHT22;52211;50.154;8.682;2023-03-08T02:53:25;7.00;59.90
65568;DHT22;52211;50.154;8.682;2023-03-08T02:55:56;7.00;59.80
65568;DHT22;52211;50.154;8.682;2023-03-08T02:58:28;7.00;60.00
65568;DHT22;52211;50.154;8.682;2023-03-08T03:00:55;7.10;59.90
65568;DHT22;52211;50.154;8.682;2023-03-08T03:03:25;7.10;59.90
65568;DHT22;52211;50.154;8.682;2023-03-08T03:05:54;7.10;59.90
65568;DHT22;52211;50.154;8.682;2023-03-08T03:08:29;7.10;59.80
65568;DHT22;52211;50.154;8.682;2023-03-08T03:10:56;7.20;59.90
65568;DHT22;52211;50.154;8.682;2023-03-08T03:13:25;7.20;59.80
65568;DHT22;52211;50.154;8.682;2023-03-08T03:15:52;7.10;59.80
65568;DHT22;52211;50.154;8.682;2023-03-08T03:18:21;7.20;59.80
65568;DHT22;52211;50.154;8.682;2023-03-08T03:20:50;7.20;59.90
65568;DHT22;52211;50.154;8.682;2023-03-08T03:23:21;7.20;59.90
65568;DHT22;52211;50.154;8.682;2023-03-08T03:25:52;7.20;59.90
65568;DHT22;52211;50.154;8.682;2023-03-08T03:28:19;7.20;59.90
65568;DHT22;52211;50.154;8.682;2023-03-08T03:30:49;7.30;60.00
65568;DHT22;52211;50.154;8.682;2023-03-08T03:33:18;7.20;60.00
65568;DHT22;52211;50.154;8.682;2023-03-08T03:35:45;7.20;60.10
65568;DHT22;52211;50.154;8.682;2023-03-08T03:38:17;7.20;60.00
65568;DHT22;52211;50.154;8.682;2023-03-08T03:40:44;7.20;60.60
65568;DHT22;52211;50.154;8.682;2023-03-08T03:43:16;7.20;60.00
65568;DHT22;52211;50.154;8.682;2023-03-08T03:45:43;7.20;60.00
65568;DHT22;52211;50.154;8.682;2023-03-08T03:48:15;7.20;60.00
65568;DHT22;52211;50.154;8.682;2023-03-08T03:50:42;7.20;60.00
65568;DHT22;52211;50.154;8.682;2023-03-08T03:53:12;7.20;60.70
65568;DHT22;52211;50.154;8.682;2023-03-08T03:55:39;7.20;60.00
65568;DHT22;52211;50.154;8.682;2023-03-08T03:58:06;7.10;60.00
65568;DHT22;52211;50.154;8.682;2023-03-08T04:00:34;7.10;60.10
65568;DHT22;52211;50.154;8.682;2023-03-08T04:03:13;7.20;60.30
65568;DHT22;52211;50.154;8.682;2023-03-08T04:05:45;7.10;60.20
65568;DHT22;52211;50.154;8.682;2023-03-08T04:08:14;7.20;60.30
65568;DHT22;52211;50.154;8.682;2023-03-08T04:10:44;7.10;60.30
65568;DHT22;52211;50.154;8.682;2023-03-08T04:13:12;7.20;60.30
65568;DHT22;52211;50.154;8.682;2023-03-08T04:15:44;7.20;60.40
65568;DHT22;52211;50.154;8.682;2023-03-08T04:18:12;7.20;60.30
65568;DHT22;52211;50.154;8.682;2023-03-08T04:20:44;7.20;60.30
65568;DHT22;52211;50.154;8.682;2023-03-08T04:23:12;7.20;60.40
65568;DHT22;52211;50.154;8.682;2023-03-08T04:25:47;7.10;60.30
65568;DHT22;52211;50.154;8.682;2023-03-08T04:28:18;7.20;60.50
65568;DHT22;52211;50.154;8.682;2023-03-08T04:30:47;7.10;60.30
65568;DHT22;52211;50.154;8.682;2023-03-08T04:33:16;7.10;60.20
65568;DHT22;52211;50.154;8.682;2023-03-08T04:35:50;7.10;60.20
65568;DHT22;52211;50.154;8.682;2023-03-08T04:38:22;7.10;60.00
65568;DHT22;52211;50.154;8.682;2023-03-08T04:40:56;7.00;60.00
65568;DHT22;52211;50.154;8.682;2023-03-08T04:43:54;7.00;59.90
65568;DHT22;52211;50.154;8.682;2023-03-08T04:46:31;6.90;60.20
65568;DHT22;52211;50.154;8.682;2023-03-08T04:49:01;6.90;60.00
65568;DHT22;52211;50.154;8.682;2023-03-08T04:51:35;6.90;60.10
65568;DHT22;52211;50.154;8.682;2023-03-08T04:54:06;6.90;60.30
65568;DHT22;52211;50.154;8.682;2023-03-08T04:56:42;6.90;60.40
65568;DHT22;52211;50.154;8.682;2023-03-08T04:59:10;6.80;60.50
65568;DHT22;52211;50.154;8.682;2023-03-08T05:01:40;6.90;60.40
65568;DHT22;52211;50.154;8.682;2023-03-08T05:04:12;6.90;60.80
65568;DHT22;52211;50.154;8.682;2023-03-08T05:06:40;6.90;60.40
65568;DHT22;52211;50.154;8.682;2023-03-08T05:09:10;6.80;60.50
65568;DHT22;52211;50.154;8.682;2023-03-08T05:11:39;6.80;60.60
65568;DHT22;52211;50.154;8.682;2023-03-08T05:14:08;6.80;60.60
65568;DHT22;52211;50.154;8.682;2023-03-08T05:16:39;6.90;60.70
65568;DHT22;52211;50.154;8.682;2023-03-08T05:19:12;6.90;60.80
65568;DHT22;52211;50.154;8.682;2023-03-08T05:21:48;6.90;61.50
65568;DHT22;52211;50.154;8.682;2023-03-08T05:24:20;6.90;60.90
65568;DHT22;52211;50.154;8.682;2023-03-08T05:26:50;6.90;61.00
65568;DHT22;52211;50.154;8.682;2023-03-08T05:29:21;6.90;61.00
65568;DHT22;52211;50.154;8.682;2023-03-08T05:31:51;7.00;61.20
65568;DHT22;52211;50.154;8.682;2023-03-08T05:34:26;7.00;61.20
65568;DHT22;52211;50.154;8.682;2023-03-08T05:36:56;7.00;61.10
65568;DHT22;52211;50.154;8.682;2023-03-08T05:39:25;7.00;61.20
65568;DHT22;52211;50.154;8.682;2023-03-08T05:41:59;7.00;61.10
65568;DHT22;52211;50.154;8.682;2023-03-08T05:44:32;7.10;60.90
65568;DHT22;52211;50.154;8.682;2023-03-08T05:47:05;7.10;60.80
65568;DHT22;52211;50.154;8.682;2023-03-08T05:49:32;7.10;60.60
65568;DHT22;52211;50.154;8.682;2023-03-08T05:52:02;7.00;60.40
65568;DHT22;52211;50.154;8.682;2023-03-08T05:54:35;7.00;60.30
65568;DHT22;52211;50.154;8.682;2023-03-08T05:57:10;6.90;60.30
65568;DHT22;52211;50.154;8.682;2023-03-08T05:59:44;6.90;60.20
65568;DHT22;52211;50.154;8.682;2023-03-08T06:02:14;6.80;60.10
65568;DHT22;52211;50.154;8.682;2023-03-08T06:04:45;6.80;60.70
65568;DHT22;52211;50.154;8.682;2023-03-08T06:07:18;6.70;60.10
65568;DHT22;52211;50.154;8.682;2023-03-08T06:09:52;6.70;60.20
65568;DHT22;52211;50.154;8.682;2023-03-08T06:12:23;6.60;60.30
65568;DHT22;52211;50.154;8.682;2023-03-08T06:14:56;6.60;60.30
65568;DHT22;52211;50.154;8.682;2023-03-08T06:17:26;6.50;60.20
65568;DHT22;52211;50.154;8.682;2023-03-08T06:19:56;6.40;60.30
65568;DHT22;52211;50.154;8.682;2023-03-08T06:22:26;6.50;60.50
65568;DHT22;52211;50.154;8.682;2023-03-08T06:24:59;6.30;60.50
65568;DHT22;52211;50.154;8.682;2023-03-08T06:27:34;6.30;60.50
65568;DHT22;52211;50.154;8.682;2023-03-08T06:30:09;6.30;60.60
65568;DHT22;52211;50.154;8.682;2023-03-08T06:32:36;6.30;60.80
65568;DHT22;52211;50.154;8.682;2023-03-08T06:35:05;6.30;60.80
65568;DHT22;52211;50.154;8.682;2023-03-08T06:37:37;6.20;60.60
65568;DHT22;52211;50.154;8.682;2023-03-08T06:40:05;6.20;60.70
65568;DHT22;52211;50.154;8.682;2023-03-08T06:42:35;6.20;60.80
65568;DHT22;52211;50.154;8.682;2023-03-08T06:45:13;6.10;60.80
65568;DHT22;52211;50.154;8.682;2023-03-08T06:47:44;6.10;61.00
65568;DHT22;52211;50.154;8.682;2023-03-08T06:50:14;6.10;61.10
65568;DHT22;52211;50.154;8.682;2023-03-08T06:52:48;6.20;61.10
65568;DHT22;52211;50.154;8.682;2023-03-08T06:55:25;6.10;61.10
65568;DHT22;52211;50.154;8.682;2023-03-08T06:57:52;6.20;61.10
65568;DHT22;52211;50.154;8.682;2023-03-08T07:00:28;6.10;61.10
65568;DHT22;52211;50.154;8.682;2023-03-08T07:03:00;6.10;61.30
65568;DHT22;52211;50.154;8.682;2023-03-08T07:05:29;6.10;61.20
65568;DHT22;52211;50.154;8.682;2023-03-08T07:07:58;6.10;61.20
65568;DHT22;52211;50.154;8.682;2023-03-08T07:10:27;6.20;61.20
65568;DHT22;52211;50.154;8.682;2023-03-08T07:12:54;6.20;61.30
65568;DHT22;52211;50.154;8.682;2023-03-08T07:15:24;6.10;61.20
65568;DHT22;52211;50.154;8.682;2023-03-08T07:17:54;6.10;61.20
65568;DHT22;52211;50.154;8.682;2023-03-08T07:20:26;6.10;61.10
65568;DHT22;52211;50.154;8.682;2023-03-08T07:22:58;6.10;61.10
65568;DHT22;52211;50.154;8.682;2023-03-08T07:25:27;6.10;61.20
65568;DHT22;52211;50.154;8.682;2023-03-08T07:27:55;6.10;61.20
65568;DHT22;52211;50.154;8.682;2023-03-08T07:30:26;6.00;61.20
65568;DHT22;52211;50.154;8.682;2023-03-08T07:32:55;6.00;61.30
65568;DHT22;52211;50.154;8.682;2023-03-08T07:35:27;6.00;61.30
65568;DHT22;52211;50.154;8.682;2023-03-08T07:37:54;6.00;61.40
65568;DHT22;52211;50.154;8.682;2023-03-08T07:40:26;6.00;61.60
65568;DHT22;52211;50.154;8.682;2023-03-08T07:42:55;6.00;61.50
65568;DHT22;52211;50.154;8.682;2023-03-08T07:45:29;6.00;61.50
65568;DHT22;52211;50.154;8.682;2023-03-08T07:48:00;6.00;61.60
65568;DHT22;52211;50.154;8.682;2023-03-08T07:50:27;6.00;61.90
65568;DHT22;52211;50.154;8.682;2023-03-08T07:52:57;5.90;61.50
65568;DHT22;52211;50.154;8.682;2023-03-08T07:55:27;5.90;61.70
65568;DHT22;52211;50.154;8.682;2023-03-08T07:57:56;6.00;61.70
65568;DHT22;52211;50.154;8.682;2023-03-08T08:00:23;5.90;61.70
65568;DHT22;52211;50.154;8.682;2023-03-08T08:02:53;5.90;61.70
65568;DHT22;52211;50.154;8.682;2023-03-08T08:05:25;5.90;61.80
65568;DHT22;52211;50.154;8.682;2023-03-08T08:07:58;5.90;61.90
65568;DHT22;52211;50.154;8.682;2023-03-08T08:10:29;5.80;61.70
65568;DHT22;52211;50.154;8.682;2023-03-08T08:12:57;5.80;61.80
65568;DHT22;52211;50.154;8.682;2023-03-08T08:15:24;5.80;61.80
65568;DHT22;52211;50.154;8.682;2023-03-08T08:17:56;5.80;61.90
65568;DHT22;52211;50.154;8.682;2023-03-08T08:20:25;5.80;62.20
65568;DHT22;52211;50.154;8.682;2023-03-08T08:22:57;5.80;62.00
65568;DHT22;52211;50.154;8.682;2023-03-08T08:25:28;5.80;62.00
65568;DHT22;52211;50.154;8.682;2023-03-08T08:28:00;5.80;62.00
65568;DHT22;52211;50.154;8.682;2023-03-08T08:30:27;5.70;61.90
65568;DHT22;52211;50.154;8.682;2023-03-08T08:32:54;5.70;61.90
65568;DHT22;52211;50.154;8.682;2023-03-08T08:35:24;5.70;62.00
65568;DHT22;52211;50.154;8.682;2023-03-08T08:38:11;5.70;62.10
65568;DHT22;52211;50.154;8.682;2023-03-08T08:40:40;5.70;62.20
65568;DHT22;52211;50.154;8.682;2023-03-08T08:43:11;5.70;62.30
65568;DHT22;52211;50.154;8.682;2023-03-08T08:45:46;5.70;62.20
65568;DHT22;52211;50.154;8.682;2023-03-08T08:48:14;5.60;62.50
65568;DHT22;52211;50.154;8.682;2023-03-08T08:50:46;5.60;62.10
65568;DHT22;52211;50.154;8.682;2023-03-08T08:53:13;5.60;62.10
65568;DHT22;52211;50.154;8.682;2023-03-08T08:55:40;5.60;62.20
65568;DHT22;52211;50.154;8.682;2023-03-08T08:58:13;5.60;62.10
65568;DHT22;52211;50.154;8.682;2023-03-08T09:00:43;5.60;62.20
65568;DHT22;52211;50.154;8.682;2023-03-08T09:03:13;5.50;62.70
65568;DHT22;52211;50.154;8.682;2023-03-08T09:05:42;5.50;62.20
65568;DHT22;52211;50.154;8.682;2023-03-08T09:08:10;5.50;62.30
65568;DHT22;52211;50.154;8.682;2023-03-08T09:10:39;5.50;62.30
65568;DHT22;52211;50.154;8.682;2023-03-08T09:13:11;5.40;62.40
65568;DHT22;52211;50.154;8.682;2023-03-08T09:15:38;5.40;62.40
65568;DHT22;52211;50.154;8.682;2023-03-08T09:18:10;5.40;62.40
65568;DHT22;52211;50.154;8.682;2023-03-08T09:20:37;5.40;62.50
65568;DHT22;52211;50.154;8.682;2023-03-08T09:23:04;5.30;62.50
65568;DHT22;52211;50.154;8.682;2023-03-08T09:25:35;5.30;62.70
65568;DHT22;52211;50.154;8.682;2023-03-08T09:28:06;5.40;62.70
65568;DHT22;52211;50.154;8.682;2023-03-08T09:30:38;5.40;62.80
65568;DHT22;52211;50.154;8.682;2023-03-08T09:33:07;5.40;62.90
65568;DHT22;52211;50.154;8.682;2023-03-08T09:35:35;5.40;62.80
65568;DHT22;52211;50.154;8.682;2023-03-08T09:38:02;5.40;62.90
65568;DHT22;52211;50.154;8.682;2023-03-08T09:40:45;5.50;62.90
65568;DHT22;52211;50.154;8.682;2023-03-08T09:46:51;5.50;63.10
65568;DHT22;52211;50.154;8.682;2023-03-08T09:49:38;5.50;62.80
65568;DHT22;52211;50.154;8.682;2023-03-08T09:52:16;5.40;63.40
65568;DHT22;52211;50.154;8.682;2023-03-08T09:54:46;5.40;62.70
65568;DHT22;52211;50.154;8.682;2023-03-08T09:57:18;5.40;62.60
65568;DHT22;52211;50.154;8.682;2023-03-08T09:59:53;5.40;62.90
65568;DHT22;52211;50.154;8.682;2023-03-08T10:05:39;5.40;63.60
65568;DHT22;52211;50.154;8.682;2023-03-08T10:08:25;5.40;63.20
65568;DHT22;52211;50.154;8.682;2023-03-08T10:11:09;5.30;62.80
65568;DHT22;52211;50.154;8.682;2023-03-08T10:13:51;5.30;62.80
65568;DHT22;52211;50.154;8.682;2023-03-08T10:16:26;5.30;63.10
65568;DHT22;52211;50.154;8.682;2023-03-08T10:19:14;5.30;63.00
65568;DHT22;52211;50.154;8.682;2023-03-08T10:21:44;5.30;63.40
65568;DHT22;52211;50.154;8.682;2023-03-08T10:24:30;5.30;63.00
65568;DHT22;52211;50.154;8.682;2023-03-08T10:27:19;5.30;63.10
65568;DHT22;52211;50.154;8.682;2023-03-08T10:29:51;5.30;63.20
65568;DHT22;52211;50.154;8.682;2023-03-08T10:32:23;5.30;63.20
65568;DHT22;52211;50.154;8.682;2023-03-08T10:35:05;5.30;63.10
65568;DHT22;52211;50.154;8.682;2023-03-08T10:37:33;5.30;63.60
65568;DHT22;52211;50.154;8.682;2023-03-08T10:40:05;5.40;63.30
65568;DHT22;52211;50.154;8.682;2023-03-08T10:42:52;5.40;63.40
65568;DHT22;52211;50.154;8.682;2023-03-08T10:45:29;5.40;63.50
65568;DHT22;52211;50.154;8.682;2023-03-08T10:48:04;5.40;63.20
65568;DHT22;52211;50.154;8.682;2023-03-08T10:50:34;5.50;63.60
65568;DHT22;52211;50.154;8.682;2023-03-08T10:53:23;5.50;63.40
65568;DHT22;52211;50.154;8.682;2023-03-08T10:55:52;5.50;64.00
65568;DHT22;52211;50.154;8.682;2023-03-08T11:00:54;5.60;63.60
65568;DHT22;52211;50.154;8.682;2023-03-08T11:03:30;5.50;63.50
65568;DHT22;52211;50.154;8.682;2023-03-08T11:05:59;5.60;63.50
65568;DHT22;52211;50.154;8.682;2023-03-08T11:08:56;5.60;63.50
65568;DHT22;52211;50.154;8.682;2023-03-08T11:11:26;5.60;63.70
65568;DHT22;52211;50.154;8.682;2023-03-08T11:14:10;5.70;63.40
65568;DHT22;52211;50.154;8.682;2023-03-08T11:22:59;5.70;64.00
65568;DHT22;52211;50.154;8.682;2023-03-08T11:25:51;5.70;63.60
65568;DHT22;52211;50.154;8.682;2023-03-08T11:31:54;5.70;64.40
65568;DHT22;52211;50.154;8.682;2023-03-08T11:40:19;5.70;64.10
65568;DHT22;52211;50.154;8.682;2023-03-08T11:45:52;5.70;64.50
65568;DHT22;52211;50.154;8.682;2023-03-08T11:48:49;5.70;64.00
65568;DHT22;52211;50.154;8.682;2023-03-08T11:54:57;5.80;64.50
65568;DHT22;52211;50.154;8.682;2023-03-08T11:57:33;5.80;64.00
65568;DHT22;52211;50.154;8.682;2023-03-08T12:03:30;5.80;64.10
65568;DHT22;52211;50.154;8.682;2023-03-08T12:06:11;5.90;65.10
65568;DHT22;52211;50.154;8.682;2023-03-08T12:12:03;6.00;65.30
65568;DHT22;52211;50.154;8.682;2023-03-08T12:14:50;6.00;64.70
65568;DHT22;52211;50.154;8.682;2023-03-08T12:17:35;6.10;64.70
65568;DHT22;52211;50.154;8.682;2023-03-08T12:20:17;6.10;64.40
65568;DHT22;52211;50.154;8.682;2023-03-08T12:22:57;6.20;64.80
65568;DHT22;52211;50.154;8.682;2023-03-08T12:25:39;6.20;64.70
65568;DHT22;52211;50.154;8.682;2023-03-08T12:28:22;6.30;65.00
65568;DHT22;52211;50.154;8.682;2023-03-08T12:31:16;6.30;64.50
65568;DHT22;52211;50.154;8.682;2023-03-08T12:33:58;6.30;64.50
65568;DHT22;52211;50.154;8.682;2023-03-08T12:36:43;6.30;64.20
65568;DHT22;52211;50.154;8.682;2023-03-08T12:39:33;6.30;64.70
65568;DHT22;52211;50.154;8.682;2023-03-08T12:44:37;6.40;64.70
65568;DHT22;52211;50.154;8.682;2023-03-08T12:49:42;6.50;64.70
65568;DHT22;52211;50.154;8.682;2023-03-08T12:57:32;6.50;65.00
65568;DHT22;52211;50.154;8.682;2023-03-08T13:00:29;6.60;64.50
65568;DHT22;52211;50.154;8.682;2023-03-08T13:05:45;6.60;64.40
65568;DHT22;52211;50.154;8.682;2023-03-08T13:18:49;6.60;64.90
65568;DHT22;52211;50.154;8.682;2023-03-08T13:21:45;6.60;64.90
65568;DHT22;52211;50.154;8.682;2023-03-08T13:24:37;6.60;65.20
65568;DHT22;52211;50.154;8.682;2023-03-08T13:27:36;6.70;65.80
65568;DHT22;52211;50.154;8.682;2023-03-08T13:33:28;6.60;64.80
65568;DHT22;52211;50.154;8.682;2023-03-08T13:36:04;6.60;64.90
65568;DHT22;52211;50.154;8.682;2023-03-08T13:39:03;6.60;64.80
65568;DHT22;52211;50.154;8.682;2023-03-08T13:41:36;6.60;65.30
65568;DHT22;52211;50.154;8.682;2023-03-08T13:44:27;6.60;64.80
65568;DHT22;52211;50.154;8.682;2023-03-08T13:46:59;6.60;65.70
65568;DHT22;52211;50.154;8.682;2023-03-08T13:49:39;6.60;64.90
65568;DHT22;52211;50.154;8.682;2023-03-08T13:52:37;6.60;65.10
65568;DHT22;52211;50.154;8.682;2023-03-08T13:55:06;6.60;65.90
65568;DHT22;52211;50.154;8.682;2023-03-08T13:57:49;6.60;64.90
65568;DHT22;52211;50.154;8.682;2023-03-08T14:02:47;6.60;65.00
65568;DHT22;52211;50.154;8.682;2023-03-08T14:05:27;6.60;65.20
65568;DHT22;52211;50.154;8.682;2023-03-08T14:08:16;6.60;65.50
65568;DHT22;52211;50.154;8.682;2023-03-08T14:10:50;6.60;65.10
65568;DHT22;52211;50.154;8.682;2023-03-08T14:13:33;6.60;65.00
65568;DHT22;52211;50.154;8.682;2023-03-08T14:16:06;6.60;65.10
65568;DHT22;52211;50.154;8.682;2023-03-08T14:18:49;6.60;65.20
65568;DHT22;52211;50.154;8.682;2023-03-08T14:23:55;6.70;65.30
65568;DHT22;52211;50.154;8.682;2023-03-08T14:26:34;6.70;65.30
65568;DHT22;52211;50.154;8.682;2023-03-08T14:29:22;6.70;65.40
65568;DHT22;52211;50.154;8.682;2023-03-08T14:37:30;6.70;65.30
65568;DHT22;52211;50.154;8.682;2023-03-08T14:42:55;6.70;66.20
65568;DHT22;52211;50.154;8.682;2023-03-08T14:45:40;6.70;65.30
65568;DHT22;52211;50.154;8.682;2023-03-08T14:48:30;6.70;65.90
65568;DHT22;52211;50.154;8.682;2023-03-08T14:51:01;6.70;65.70
65568;DHT22;52211;50.154;8.682;2023-03-08T14:53:37;6.70;65.30
65568;DHT22;52211;50.154;8.682;2023-03-08T14:56:17;6.80;65.40
65568;DHT22;52211;50.154;8.682;2023-03-08T14:58:47;6.70;65.90
65568;DHT22;52211;50.154;8.682;2023-03-08T15:01:26;6.70;65.40
65568;DHT22;52211;50.154;8.682;2023-03-08T15:03:57;6.80;65.80
65568;DHT22;52211;50.154;8.682;2023-03-08T15:06:34;6.70;65.30
65568;DHT22;52211;50.154;8.682;2023-03-08T15:09:07;6.70;65.70
65568;DHT22;52211;50.154;8.682;2023-03-08T15:11:35;6.70;65.30
65568;DHT22;52211;50.154;8.682;2023-03-08T15:14:10;6.80;65.40
65568;DHT22;52211;50.154;8.682;2023-03-08T15:16:40;6.80;65.40
65568;DHT22;52211;50.154;8.682;2023-03-08T15:19:07;6.80;65.50
65568;DHT22;52211;50.154;8.682;2023-03-08T15:21:35;6.80;65.60
65568;DHT22;52211;50.154;8.682;2023-03-08T15:24:05;6.80;65.60
65568;DHT22;52211;50.154;8.682;2023-03-08T15:26:32;6.80;65.60
65568;DHT22;52211;50.154;8.682;2023-03-08T15:29:00;6.80;65.60
65568;DHT22;52211;50.154;8.682;2023-03-08T15:31:30;6.90;65.40
65568;DHT22;52211;50.154;8.682;2023-03-08T15:33:57;6.80;65.40
65568;DHT22;52211;50.154;8.682;2023-03-08T15:36:24;6.80;65.50
65568;DHT22;52211;50.154;8.682;2023-03-08T15:38:53;6.80;65.70
65568;DHT22;52211;50.154;8.682;2023-03-08T15:41:23;6.90;65.90
65568;DHT22;52211;50.154;8.682;2023-03-08T15:43:49;6.90;66.00
65568;DHT22;52211;50.154;8.682;2023-03-08T15:46:20;6.90;66.00
65568;DHT22;52211;50.154;8.682;2023-03-08T15:48:53;6.90;66.00
65568;DHT22;52211;50.154;8.682;2023-03-08T15:51:21;7.00;66.00
65568;DHT22;52211;50.154;8.682;2023-03-08T15:53:54;7.00;66.00
65568;DHT22;52211;50.154;8.682;2023-03-08T15:56:23;7.00;65.90
65568;DHT22;52211;50.154;8.682;2023-03-08T15:58:54;7.00;65.90
65568;DHT22;52211;50.154;8.682;2023-03-08T16:01:22;7.00;66.10
65568;DHT22;52211;50.154;8.682;2023-03-08T16:03:53;7.10;66.70
65568;DHT22;52211;50.154;8.682;2023-03-08T16:06:24;7.10;66.10
65568;DHT22;52211;50.154;8.682;2023-03-08T16:08:58;7.10;66.10
65568;DHT22;52211;50.154;8.682;2023-03-08T16:11:25;7.10;66.20
65568;DHT22;52211;50.154;8.682;2023-03-08T16:13:54;7.10;66.00
65568;DHT22;52211;50.154;8.682;2023-03-08T16:16:26;7.20;66.20
65568;DHT22;52211;50.154;8.682;2023-03-08T16:19:10;7.20;66.20
65568;DHT22;52211;50.154;8.682;2023-03-08T16:21:37;7.20;66.00
65568;DHT22;52211;50.154;8.682;2023-03-08T16:24:06;7.30;66.10
65568;DHT22;52211;50.154;8.682;2023-03-08T16:26:33;7.30;66.10
65568;DHT22;52211;50.154;8.682;2023-03-08T16:29:00;7.30;66.10
65568;DHT22;52211;50.154;8.682;2023-03-08T16:31:34;7.30;66.00
65568;DHT22;52211;50.154;8.682;2023-03-08T16:34:02;7.30;66.10
65568;DHT22;52211;50.154;8.682;2023-03-08T16:36:32;7.30;66.10
65568;DHT22;52211;50.154;8.682;2023-03-08T16:39:05;7.30;66.10
65568;DHT22;52211;50.154;8.682;2023-03-08T16:41:37;7.30;66.30
65568;DHT22;52211;50.154;8.682;2023-03-08T16:44:20;7.40;66.20
65568;DHT22;52211;50.154;8.682;2023-03-08T16:46:53;7.40;66.50
65568;DHT22;52211;50.154;8.682;2023-03-08T16:49:22;7.40;66.20
65568;DHT22;52211;50.154;8.682;2023-03-08T16:51:54;7.40;66.10
65568;DHT22;52211;50.154;8.682;2023-03-08T16:54:24;7.40;66.10
65568;DHT22;52211;50.154;8.682;2023-03-08T16:56:53;7.40;66.10
65568;DHT22;52211;50.154;8.682;2023-03-08T16:59:20;7.40;66.00
65568;DHT22;52211;50.154;8.682;2023-03-08T17:01:49;7.40;66.10
65568;DHT22;52211;50.154;8.682;2023-03-08T17:04:18;7.40;66.10
65568;DHT22;52211;50.154;8.682;2023-03-08T17:06:48;7.50;66.10
65568;DHT22;52211;50.154;8.682;2023-03-08T17:09:19;7.50;66.30
65568;DHT22;52211;50.154;8.682;2023-03-08T17:11:46;7.50;66.10
65568;DHT22;52211;50.154;8.682;2023-03-08T17:14:15;7.50;66.10
65568;DHT22;52211;50.154;8.682;2023-03-08T17:16:45;7.50;66.00
65568;DHT22;52211;50.154;8.682;2023-03-08T17:19:14;7.50;66.10
65568;DHT22;52211;50.154;8.682;2023-03-08T17:21:44;7.50;66.00
65568;DHT22;52211;50.154;8.682;2023-03-08T17:24:12;7.50;66.00
65568;DHT22;52211;50.154;8.682;2023-03-08T17:26:45;7.40;66.00
65568;DHT22;52211;50.154;8.682;2023-03-08T17:29:16;7.50;65.90
65568;DHT22;52211;50.154;8.682;2023-03-08T17:31:45;7.40;66.00
65568;DHT22;52211;50.154;8.682;2023-03-08T17:34:12;7.40;66.10
65568;DHT22;52211;50.154;8.682;2023-03-08T17:36:42;7.40;66.30
65568;DHT22;52211;50.154;8.682;2023-03-08T17:39:17;7.40;66.40